createdAt,value
2023-01-22T06:47:54.088Z,78839.31
2023-01-22T06:50:24.352Z,78846.00
2023-01-22T06:52:53.392Z,78830.28
2023-01-22T06:55:22.573Z,78854.00
2023-01-22T06:57:51.974Z,78823.78
2023-01-22T07:00:21.425Z,78851.28
2023-01-22T07:02:50.708Z,78853.31
2023-01-22T07:05:23.262Z,78851.38
2023-01-22T07:07:55.835Z,78843.44
2023-01-22T07:10:24.645Z,78827.47
2023-01-22T07:12:57.718Z,78845.34
2023-01-22T07:15:27.647Z,78838.81
2023-01-22T07:17:56.994Z,78842.81
2023-01-22T07:20:26.375Z,78834.81
2023-01-22T07:22:59.219Z,78839.16
2023-01-22T07:25:29.191Z,78854.78
2023-01-22T07:28:02.319Z,78840.53
2023-01-22T07:30:32.062Z,78843.84
2023-01-22T07:33:02.254Z,78843.91
2023-01-22T07:35:31.781Z,78843.75
2023-01-22T07:38:01.692Z,78836.91
2023-01-22T07:40:31.160Z,78845.31
2023-01-22T07:42:59.718Z,78844.91
2023-01-22T07:45:29.120Z,78843.38
2023-01-22T07:48:01.073Z,78826.38
2023-01-22T07:50:33.252Z,78835.53
2023-01-22T07:53:02.325Z,78838.16
2023-01-22T07:55:32.245Z,78838.31
2023-01-22T07:58:03.270Z,78839.63
2023-01-22T08:00:34.637Z,78825.47
2023-01-22T08:03:12.516Z,78843.31
2023-01-22T08:05:42.113Z,78844.09
2023-01-22T08:08:19.494Z,78820.47
2023-01-22T08:10:48.713Z,78826.31
2023-01-22T08:13:17.747Z,78819.97
2023-01-22T08:15:46.935Z,78812.63
2023-01-22T08:18:17.399Z,78833.44
2023-01-22T08:20:46.791Z,78833.59
2023-01-22T08:23:15.791Z,78827.09
2023-01-22T08:25:44.752Z,78821.69
2023-01-22T08:28:13.416Z,78812.84
2023-01-22T08:30:46.412Z,78829.88
2023-01-22T08:33:17.254Z,78835.09
2023-01-22T08:35:46.468Z,78810.09
2023-01-22T08:38:15.476Z,78810.91
2023-01-22T08:40:44.308Z,78793.81
2023-01-22T08:43:15.575Z,78771.09
2023-01-22T08:45:46.051Z,78791.72
2023-01-22T08:48:14.928Z,78800.44
2023-01-22T08:50:44.068Z,78803.22
2023-01-22T08:53:12.893Z,78804.72
2023-01-22T08:55:41.699Z,78815.53
2023-01-22T08:58:10.631Z,78819.03
2023-01-22T09:00:40.147Z,78807.81
2023-01-22T09:03:09.275Z,78807.72
2023-01-22T09:05:41.520Z,78803.81
2023-01-22T09:08:11.315Z,78783.28
2023-01-22T09:10:40.097Z,78800.88
2023-01-22T09:13:09.593Z,78819.41
2023-01-22T09:15:38.653Z,78796.88
2023-01-22T09:18:08.054Z,78825.69
2023-01-22T09:20:40.412Z,78831.53
2023-01-22T09:23:09.600Z,78822.91
2023-01-22T09:25:38.735Z,78808.44
2023-01-22T09:28:10.141Z,78809.66
2023-01-22T09:30:43.658Z,78825.44
2023-01-22T09:33:12.645Z,78825.97
2023-01-22T09:35:41.189Z,78775.00
2023-01-22T09:38:16.725Z,78804.16
2023-01-22T09:41:00.191Z,78818.34
2023-01-22T09:43:33.925Z,78814.56
2023-01-22T09:46:15.100Z,78790.41
2023-01-22T09:48:48.595Z,78810.22
2023-01-22T09:51:18.154Z,78798.16
2023-01-22T09:53:56.581Z,78796.50
2023-01-22T09:56:35.096Z,78816.97
2023-01-22T09:59:07.921Z,78809.69
2023-01-22T10:01:38.194Z,78822.94
2023-01-22T10:04:14.465Z,78797.31
2023-01-22T10:06:46.437Z,78814.38
2023-01-22T10:09:20.535Z,78786.81
2023-01-22T10:11:54.520Z,78796.38
2023-01-22T10:14:27.707Z,78801.63
2023-01-22T10:17:00.637Z,78810.88
2023-01-22T10:19:43.586Z,78792.34
2023-01-22T10:22:20.818Z,78795.97
2023-01-22T10:24:50.185Z,78801.09
2023-01-22T10:27:23.263Z,78801.50
2023-01-22T10:30:13.285Z,78791.22
2023-01-22T10:32:42.562Z,78795.63
2023-01-22T10:35:22.384Z,78807.06
2023-01-22T10:37:55.140Z,78800.16
2023-01-22T10:40:26.850Z,78809.38
2023-01-22T10:43:13.876Z,78813.75
2023-01-22T10:45:57.152Z,78808.50
2023-01-22T10:48:26.355Z,78805.13
2023-01-22T10:51:14.356Z,78810.47
2023-01-22T10:54:42.402Z,78811.00
2023-01-22T10:57:34.656Z,78799.56
2023-01-22T11:00:24.461Z,78800.19
2023-01-22T11:02:53.497Z,78778.97
